Time;durP1;ratioP1;P1;durP2;ratioP2;P2;SDS_P1;SDS_P2;PMS_P1;PMS_P2;Temp;Humidity;BMP_temperature;BMP_pressure;BME280_temperature;BME280_humidity;BME280_pressure;Samples;Min_cycle;Max_cycle;Signal;HPM_P1;HPM_P2
2023/01/04 00:00:33;;;;;;;;;;;8.10;99.90;;;;;;5027169;28;19989;-83
2023/01/04 00:02:58;;;;;;;;;;;8.20;99.90;;;;;;4996339;28;19929;-83
2023/01/04 00:05:24;;;;;;;;;;;8.20;99.90;;;;;;4997178;28;19934;-83
2023/01/04 00:07:50;;;;;;;;;;;8.20;99.90;;;;;;4993881;28;19929;-84
2023/01/04 00:10:15;;;;;;;;;;;8.20;99.90;;;;;;5011330;28;20416;-83
2023/01/04 00:12:41;;;;;;;;;;;8.10;99.90;;;;;;4995967;28;19932;-83
2023/01/04 00:15:06;;;;;;;;;;;8.10;99.90;;;;;;4998214;28;19996;-82
2023/01/04 00:17:32;;;;;;;;;;;8.10;99.90;;;;;;5016983;28;19999;-83
2023/01/04 00:19:58;;;;;;;;;;;8.10;99.90;;;;;;5010738;28;20403;-83
2023/01/04 00:22:23;;;;;;;;;;;8.10;99.90;;;;;;5014347;28;19935;-85
2023/01/04 00:24:49;;;;;;;;;;;8.10;99.90;;;;;;5013776;28;19957;-83
2023/01/04 00:27:15;;;;;;;;;;;8.10;99.90;;;;;;5016486;28;19933;-83
2023/01/04 00:29:40;;;;;;;;;;;8.10;99.90;;;;;;5013226;28;19932;-83
2023/01/04 00:32:06;;;;;;;;;;;8.00;99.90;;;;;;5012172;28;19933;-84
2023/01/04 00:34:31;;;;;;;;;;;8.00;99.90;;;;;;5012992;28;19933;-83
2023/01/04 00:36:57;;;;;;;;;;;8.00;99.90;;;;;;5014181;28;19930;-83
2023/01/04 00:39:22;;;;;;;;;;;8.00;99.90;;;;;;5013901;28;19925;-83
2023/01/04 00:41:49;;;;;;;;;;;7.90;99.90;;;;;;5014403;28;20427;-84
2023/01/04 00:44:15;;;;;;;;;;;7.90;99.90;;;;;;4999151;28;19926;-83
2023/01/04 00:46:41;;;;;;;;;;;7.90;99.90;;;;;;4996808;28;19989;-84
2023/01/04 00:49:08;;;;;;;;;;;7.80;99.90;;;;;;5025282;28;19937;-83
2023/01/04 00:51:34;;;;;;;;;;;7.80;99.90;;;;;;5026175;28;19930;-83
2023/01/04 00:54:00;;;;;;;;;;;7.80;99.90;;;;;;5012489;28;19940;-83
2023/01/04 00:56:29;;;;;;;;;;;7.80;99.90;;;;;;4993342;28;20012;-84
2023/01/04 00:58:55;;;;;;;;;;;7.80;99.90;;;;;;5013483;28;20299;-84
2023/01/04 01:01:21;;;;;;;;;;;7.80;99.90;;;;;;5009679;28;19950;-84
2023/01/04 01:03:47;;;;;;;;;;;7.80;99.90;;;;;;4994422;28;19931;-85
2023/01/04 01:06:12;;;;;;;;;;;7.80;99.90;;;;;;4995908;28;20503;-86
2023/01/04 01:08:38;;;;;;;;;;;7.80;99.90;;;;;;5008756;28;19953;-84
2023/01/04 01:11:05;;;;;;;;;;;7.90;99.90;;;;;;5011136;28;20441;-84
2023/01/04 01:13:31;;;;;;;;;;;7.80;99.90;;;;;;4995416;28;19951;-84
2023/01/04 01:16:01;;;;;;;;;;;7.80;99.90;;;;;;4996412;28;19993;-84
2023/01/04 01:18:28;;;;;;;;;;;7.90;99.90;;;;;;4998297;28;19934;-82
2023/01/04 01:20:53;;;;;;;;;;;7.90;99.90;;;;;;5009737;28;20001;-82
2023/01/04 01:23:19;;;;;;;;;;;7.80;99.90;;;;;;5011311;28;19969;-81
2023/01/04 01:25:44;;;;;;;;;;;7.80;99.90;;;;;;5009354;28;19936;-82
2023/01/04 01:28:10;;;;;;;;;;;7.80;99.90;;;;;;5012846;28;19999;-82
2023/01/04 01:30:40;;;;;;;;;;;7.80;99.90;;;;;;5009364;28;19937;-82
2023/01/04 01:33:06;;;;;;;;;;;7.80;99.90;;;;;;4996183;28;20027;-83
2023/01/04 01:35:33;;;;;;;;;;;7.80;99.90;;;;;;4994447;28;19929;-84
2023/01/04 01:37:58;;;;;;;;;;;7.80;99.90;;;;;;5009403;28;20389;-81
2023/01/04 01:40:24;;;;;;;;;;;7.80;99.90;;;;;;4978211;28;19940;-82
2023/01/04 01:42:49;;;;;;;;;;;7.80;99.90;;;;;;5009987;28;19933;-83
2023/01/04 01:45:24;;;;;;;;;;;7.80;99.90;;;;;;5005618;28;19925;-83
2023/01/04 01:47:50;;;;;;;;;;;7.80;99.90;;;;;;4991269;28;20919;-82
2023/01/04 01:50:19;;;;;;;;;;;7.80;99.90;;;;;;5009001;28;19998;-83
2023/01/04 01:52:45;;;;;;;;;;;7.80;99.90;;;;;;5010444;28;19925;-83
2023/01/04 01:55:11;;;;;;;;;;;7.90;99.90;;;;;;5007454;28;19925;-83
2023/01/04 01:57:37;;;;;;;;;;;7.90;99.90;;;;;;5010443;28;19926;-83
2023/01/04 02:00:11;;;;;;;;;;;7.90;99.90;;;;;;4994848;28;19934;-84
2023/01/04 02:02:39;;;;;;;;;;;7.90;99.90;;;;;;5008129;28;19948;-83
2023/01/04 02:05:05;;;;;;;;;;;7.90;99.90;;;;;;4994017;28;19934;-82
2023/01/04 02:07:31;;;;;;;;;;;7.80;99.90;;;;;;4994273;28;19976;-82
2023/01/04 02:09:57;;;;;;;;;;;7.90;99.90;;;;;;5008583;28;19929;-82
2023/01/04 02:12:23;;;;;;;;;;;7.90;99.90;;;;;;5014253;28;19937;-82
2023/01/04 02:14:49;;;;;;;;;;;7.90;99.90;;;;;;5012173;28;19925;-82
2023/01/04 02:17:22;;;;;;;;;;;7.90;99.90;;;;;;5012174;28;20488;-82
2023/01/04 02:19:58;;;;;;;;;;;8.00;99.90;;;;;;5011635;28;19930;-81
2023/01/04 02:22:30;;;;;;;;;;;8.00;99.90;;;;;;5026811;28;19976;-81
2023/01/04 02:24:58;;;;;;;;;;;7.90;99.90;;;;;;5013690;28;20044;-83
2023/01/04 02:27:24;;;;;;;;;;;8.00;99.90;;;;;;5027583;28;19952;-81
2023/01/04 02:29:49;;;;;;;;;;;8.00;99.90;;;;;;5010000;28;19926;-81
2023/01/04 02:32:15;;;;;;;;;;;8.00;99.90;;;;;;5008486;28;20464;-80
2023/01/04 02:34:44;;;;;;;;;;;8.10;99.90;;;;;;5011496;28;19956;-81
2023/01/04 02:37:17;;;;;;;;;;;8.10;99.90;;;;;;4993740;28;19949;-80
2023/01/04 02:39:49;;;;;;;;;;;8.10;99.90;;;;;;5011942;28;19937;-81
2023/01/04 02:45:26;;;;;;;;;;;8.20;99.90;;;;;;5014095;28;19984;-80
2023/01/04 02:50:39;;;;;;;;;;;8.30;99.90;;;;;;5023295;28;19925;-81
2023/01/04 02:53:08;;;;;;;;;;;8.30;99.90;;;;;;5008521;28;19929;-80
2023/01/04 02:55:36;;;;;;;;;;;8.30;99.90;;;;;;5009912;28;19933;-80
2023/01/04 02:58:08;;;;;;;;;;;8.40;99.90;;;;;;5008130;28;19952;-81
2023/01/04 03:00:34;;;;;;;;;;;8.40;99.90;;;;;;5008035;28;19925;-80
2023/01/04 03:06:14;;;;;;;;;;;8.50;99.90;;;;;;4991952;28;19949;-81
2023/01/04 03:08:59;;;;;;;;;;;8.50;99.90;;;;;;5004932;28;19976;-80
2023/01/04 03:14:17;;;;;;;;;;;8.60;99.90;;;;;;5007531;28;19925;-81
2023/01/04 03:16:43;;;;;;;;;;;8.70;99.90;;;;;;5006330;28;20002;-80
2023/01/04 03:19:10;;;;;;;;;;;8.70;99.90;;;;;;5024621;28;19925;-80
2023/01/04 03:21:38;;;;;;;;;;;8.80;99.90;;;;;;5024072;28;19929;-80
2023/01/04 03:35:26;;;;;;;;;;;9.00;99.90;;;;;;5009448;28;19952;-79
2023/01/04 03:43:08;;;;;;;;;;;9.00;99.90;;;;;;5024405;28;19968;-79
2023/01/04 03:49:20;;;;;;;;;;;9.10;99.90;;;;;;5010917;28;19933;-79
2023/01/04 03:51:46;;;;;;;;;;;9.10;99.90;;;;;;5024332;28;19926;-80
2023/01/04 03:54:28;;;;;;;;;;;9.20;99.90;;;;;;5004477;28;19934;-80
2023/01/04 03:56:53;;;;;;;;;;;9.20;99.90;;;;;;5007814;28;20590;-81
2023/01/04 03:59:21;;;;;;;;;;;9.20;99.90;;;;;;5007468;28;20320;-79
2023/01/04 04:01:47;;;;;;;;;;;9.20;99.90;;;;;;5025056;28;19925;-80
2023/01/04 04:09:41;;;;;;;;;;;9.30;99.90;;;;;;5007681;28;19973;-79
2023/01/04 04:12:07;;;;;;;;;;;9.30;99.90;;;;;;5008381;28;19930;-81
2023/01/04 04:14:32;;;;;;;;;;;9.40;99.90;;;;;;5011720;28;19925;-79
2023/01/04 04:16:58;;;;;;;;;;;9.40;99.90;;;;;;5021803;28;20016;-80
2023/01/04 04:19:23;;;;;;;;;;;9.40;99.90;;;;;;5009860;28;19926;-79
2023/01/04 04:21:49;;;;;;;;;;;9.40;99.90;;;;;;5009986;28;19932;-80
2023/01/04 04:24:16;;;;;;;;;;;9.40;99.90;;;;;;5012925;28;20376;-79
2023/01/04 04:26:41;;;;;;;;;;;9.40;99.90;;;;;;5007607;28;19956;-80
2023/01/04 04:29:07;;;;;;;;;;;9.40;99.90;;;;;;5005274;28;19930;-79
2023/01/04 04:31:32;;;;;;;;;;;9.40;99.90;;;;;;5009234;28;19988;-80
2023/01/04 04:33:58;;;;;;;;;;;9.50;99.90;;;;;;5007563;28;19963;-80
2023/01/04 04:36:24;;;;;;;;;;;9.50;99.90;;;;;;4974351;28;19933;-79
2023/01/04 04:38:49;;;;;;;;;;;9.50;99.90;;;;;;5010709;28;20026;-79
2023/01/04 04:43:59;;;;;;;;;;;9.60;99.90;;;;;;5010279;28;19933;-80
2023/01/04 04:46:24;;;;;;;;;;;9.60;99.90;;;;;;5011047;28;19943;-80
2023/01/04 04:48:50;;;;;;;;;;;9.60;99.90;;;;;;5010562;28;19929;-79
2023/01/04 04:51:16;;;;;;;;;;;9.60;99.90;;;;;;4993090;28;19929;-79
2023/01/04 04:53:41;;;;;;;;;;;9.60;99.90;;;;;;5010732;28;20308;-79
2023/01/04 04:56:07;;;;;;;;;;;9.70;99.90;;;;;;5013221;28;20008;-79
2023/01/04 04:58:32;;;;;;;;;;;9.70;99.90;;;;;;5010093;28;20012;-79
2023/01/04 05:00:58;;;;;;;;;;;9.70;99.90;;;;;;5010680;28;19925;-80
2023/01/04 05:03:24;;;;;;;;;;;9.80;99.90;;;;;;5010373;28;20035;-80
2023/01/04 05:05:49;;;;;;;;;;;9.80;99.90;;;;;;5010438;28;19968;-79
2023/01/04 05:08:15;;;;;;;;;;;9.80;99.90;;;;;;5010330;28;20013;-81
2023/01/04 05:10:40;;;;;;;;;;;9.80;99.90;;;;;;5013227;28;19926;-80
2023/01/04 05:13:09;;;;;;;;;;;9.80;99.90;;;;;;5010122;28;19968;-80
2023/01/04 05:15:37;;;;;;;;;;;9.80;99.90;;;;;;5010625;28;19930;-79
2023/01/04 05:18:03;;;;;;;;;;;9.90;99.90;;;;;;5009846;28;19936;-79
2023/01/04 05:20:28;;;;;;;;;;;9.90;99.90;;;;;;5009054;28;19929;-80
2023/01/04 05:22:54;;;;;;;;;;;9.90;99.90;;;;;;5007910;28;19995;-79
2023/01/04 05:25:19;;;;;;;;;;;10.00;99.90;;;;;;5011014;28;20168;-79
2023/01/04 05:27:45;;;;;;;;;;;10.00;99.90;;;;;;5009868;28;19981;-79
2023/01/04 05:32:56;;;;;;;;;;;10.10;99.90;;;;;;5009459;28;20420;-81
2023/01/04 05:35:22;;;;;;;;;;;10.20;99.90;;;;;;5009650;28;19929;-80
2023/01/04 05:37:47;;;;;;;;;;;10.20;99.90;;;;;;4996406;28;20012;-80
2023/01/04 05:40:13;;;;;;;;;;;10.20;99.90;;;;;;5010829;28;19934;-80
2023/01/04 05:42:38;;;;;;;;;;;10.30;99.90;;;;;;5010822;28;19930;-80
2023/01/04 05:45:04;;;;;;;;;;;10.30;99.90;;;;;;5010697;28;19932;-80
2023/01/04 05:47:30;;;;;;;;;;;10.30;99.90;;;;;;5009332;28;19933;-79
2023/01/04 05:49:55;;;;;;;;;;;10.40;99.90;;;;;;5012766;28;19926;-80
2023/01/04 05:52:21;;;;;;;;;;;10.40;99.90;;;;;;5008848;28;20629;-80
2023/01/04 05:54:47;;;;;;;;;;;10.50;99.90;;;;;;5007977;28;20042;-80
2023/01/04 05:57:13;;;;;;;;;;;10.50;99.90;;;;;;5009617;28;19965;-80
2023/01/04 05:59:38;;;;;;;;;;;10.50;99.90;;;;;;5011155;28;19941;-80
2023/01/04 06:02:04;;;;;;;;;;;10.50;99.90;;;;;;5015524;28;19929;-79
2023/01/04 06:04:30;;;;;;;;;;;10.60;99.90;;;;;;5011738;28;19933;-80
2023/01/04 06:06:56;;;;;;;;;;;10.60;99.90;;;;;;5009373;28;19925;-80
2023/01/04 06:09:23;;;;;;;;;;;10.60;99.90;;;;;;5027384;28;20308;-79
2023/01/04 06:11:49;;;;;;;;;;;10.60;99.90;;;;;;5016855;28;19935;-80
2023/01/04 06:14:15;;;;;;;;;;;10.60;99.90;;;;;;5013793;28;19925;-80
2023/01/04 06:16:40;;;;;;;;;;;10.60;99.90;;;;;;5011056;28;19933;-79
2023/01/04 06:19:06;;;;;;;;;;;10.60;99.90;;;;;;5007920;28;19930;-78
2023/01/04 06:21:31;;;;;;;;;;;10.60;99.90;;;;;;5010048;28;19925;-78
2023/01/04 06:23:57;;;;;;;;;;;10.60;99.90;;;;;;5010045;28;19936;-78
2023/01/04 06:26:22;;;;;;;;;;;10.60;99.90;;;;;;5010738;28;19929;-78
2023/01/04 06:28:48;;;;;;;;;;;10.60;99.90;;;;;;5011082;28;19951;-79
2023/01/04 06:31:13;;;;;;;;;;;10.60;99.90;;;;;;5008532;28;19936;-78
2023/01/04 06:33:39;;;;;;;;;;;10.60;99.90;;;;;;4993538;28;19936;-79
2023/01/04 06:36:05;;;;;;;;;;;10.60;99.90;;;;;;5025460;28;19926;-79
2023/01/04 06:38:31;;;;;;;;;;;10.70;99.90;;;;;;5012137;28;19944;-79
2023/01/04 06:40:57;;;;;;;;;;;10.60;99.90;;;;;;5023529;28;19926;-79
2023/01/04 06:43:22;;;;;;;;;;;10.60;99.90;;;;;;5009581;28;19933;-78
2023/01/04 06:45:48;;;;;;;;;;;10.60;99.90;;;;;;5024789;28;19925;-78
2023/01/04 06:48:14;;;;;;;;;;;10.60;99.90;;;;;;5010327;28;19925;-79
2023/01/04 06:50:39;;;;;;;;;;;10.60;99.90;;;;;;5010300;28;19929;-79
2023/01/04 06:53:05;;;;;;;;;;;10.60;99.90;;;;;;5010407;28;19930;-79
2023/01/04 06:55:30;;;;;;;;;;;10.60;99.90;;;;;;5009817;28;19933;-80
2023/01/04 06:57:56;;;;;;;;;;;10.50;99.90;;;;;;5024994;28;19925;-80
2023/01/04 07:00:22;;;;;;;;;;;10.60;99.90;;;;;;5009279;28;19965;-79
2023/01/04 07:02:47;;;;;;;;;;;10.60;99.90;;;;;;5008510;28;20425;-81
2023/01/04 07:05:13;;;;;;;;;;;10.60;99.90;;;;;;5011651;28;19926;-78
2023/01/04 07:07:39;;;;;;;;;;;10.60;99.90;;;;;;5011439;28;20500;-78
2023/01/04 07:10:05;;;;;;;;;;;10.60;99.90;;;;;;5012150;28;19929;-78
2023/01/04 07:12:30;;;;;;;;;;;10.60;99.90;;;;;;5015221;28;20309;-78
2023/01/04 07:14:56;;;;;;;;;;;10.60;99.90;;;;;;5017499;28;20277;-78
2023/01/04 07:17:21;;;;;;;;;;;10.70;99.90;;;;;;5019048;28;19952;-78
2023/01/04 07:19:47;;;;;;;;;;;10.70;99.90;;;;;;5018394;28;19925;-78
2023/01/04 07:22:13;;;;;;;;;;;10.70;99.90;;;;;;5015960;28;19934;-78
2023/01/04 07:24:38;;;;;;;;;;;10.70;99.90;;;;;;5032686;28;19925;-78
2023/01/04 07:27:04;;;;;;;;;;;10.70;99.90;;;;;;5016764;28;19925;-79
2023/01/04 07:29:29;;;;;;;;;;;10.70;99.90;;;;;;5023557;28;19933;-78
2023/01/04 07:31:55;;;;;;;;;;;10.80;99.90;;;;;;5009375;28;19933;-78
2023/01/04 07:34:22;;;;;;;;;;;10.70;99.90;;;;;;5017044;28;19952;-78
2023/01/04 07:36:48;;;;;;;;;;;10.80;99.90;;;;;;5016118;28;19963;-78
2023/01/04 07:39:13;;;;;;;;;;;10.70;99.90;;;;;;5013538;28;19925;-78
2023/01/04 07:41:39;;;;;;;;;;;10.70;99.90;;;;;;5012959;28;19974;-79
2023/01/04 07:44:05;;;;;;;;;;;10.70;99.90;;;;;;5017403;28;19925;-80
2023/01/04 07:46:31;;;;;;;;;;;10.80;99.90;;;;;;5018590;28;19925;-79
2023/01/04 07:48:56;;;;;;;;;;;10.80;99.90;;;;;;5016936;28;19925;-79
2023/01/04 07:51:22;;;;;;;;;;;10.80;99.90;;;;;;5011409;28;19956;-78
2023/01/04 07:53:47;;;;;;;;;;;10.80;99.90;;;;;;5011153;28;19933;-78
2023/01/04 07:56:13;;;;;;;;;;;10.80;99.90;;;;;;5011574;28;19952;-78
2023/01/04 07:58:39;;;;;;;;;;;10.80;99.90;;;;;;5014951;28;19933;-78
2023/01/04 08:01:08;;;;;;;;;;;10.80;99.90;;;;;;5016818;28;19975;-78
2023/01/04 08:03:34;;;;;;;;;;;10.80;99.90;;;;;;5016284;28;19936;-78
2023/01/04 08:06:03;;;;;;;;;;;10.80;99.90;;;;;;5015084;28;19926;-78
2023/01/04 08:08:29;;;;;;;;;;;10.90;99.90;;;;;;5014091;28;19993;-78
2023/01/04 08:10:54;;;;;;;;;;;10.90;99.90;;;;;;5015312;28;19957;-78
2023/01/04 08:13:20;;;;;;;;;;;10.90;99.90;;;;;;5016734;28;19949;-79
2023/01/04 08:15:51;;;;;;;;;;;10.90;99.90;;;;;;5011820;28;19980;-79
2023/01/04 08:18:16;;;;;;;;;;;10.90;99.90;;;;;;5029749;28;19941;-78
2023/01/04 08:20:42;;;;;;;;;;;10.90;99.90;;;;;;4999087;28;19929;-78
2023/01/04 08:23:07;;;;;;;;;;;11.00;99.90;;;;;;4999035;28;19971;-78
2023/01/04 08:25:33;;;;;;;;;;;11.00;99.90;;;;;;5016033;28;19925;-78
2023/01/04 08:27:58;;;;;;;;;;;11.10;99.90;;;;;;5015777;28;19991;-78
2023/01/04 08:30:26;;;;;;;;;;;11.00;99.90;;;;;;5008417;28;21747;-79
2023/01/04 08:32:52;;;;;;;;;;;11.00;99.90;;;;;;5013386;28;19929;-78
2023/01/04 08:35:18;;;;;;;;;;;11.00;99.90;;;;;;5012741;28;19935;-79
2023/01/04 08:37:44;;;;;;;;;;;11.00;99.90;;;;;;5011770;28;19940;-79
2023/01/04 08:40:10;;;;;;;;;;;11.00;99.90;;;;;;5004997;28;19925;-79
2023/01/04 08:42:35;;;;;;;;;;;11.00;99.90;;;;;;5029554;28;19925;-79
2023/01/04 08:45:01;;;;;;;;;;;11.00;99.90;;;;;;5014993;28;19925;-79
2023/01/04 08:47:28;;;;;;;;;;;11.10;99.90;;;;;;5014652;28;21202;-78
2023/01/04 08:49:53;;;;;;;;;;;11.00;99.90;;;;;;5012148;28;21250;-78
2023/01/04 08:52:19;;;;;;;;;;;11.00;99.90;;;;;;5021322;28;19984;-79
2023/01/04 08:54:44;;;;;;;;;;;11.00;99.90;;;;;;5027074;28;19925;-78
2023/01/04 08:57:10;;;;;;;;;;;11.00;99.90;;;;;;5035926;28;19930;-78
2023/01/04 08:59:35;;;;;;;;;;;11.10;99.90;;;;;;5036514;28;20015;-78
2023/01/04 09:02:01;;;;;;;;;;;11.10;99.90;;;;;;5029419;28;19933;-79
2023/01/04 09:04:27;;;;;;;;;;;11.10;99.90;;;;;;5036439;28;19990;-80
2023/01/04 09:06:52;;;;;;;;;;;11.10;99.90;;;;;;5019314;28;19982;-79
2023/01/04 09:09:18;;;;;;;;;;;11.10;99.90;;;;;;5021257;28;19984;-79
2023/01/04 09:11:43;;;;;;;;;;;11.10;99.90;;;;;;5020175;28;20274;-78
2023/01/04 09:14:09;;;;;;;;;;;11.10;99.90;;;;;;5019127;28;19926;-79
2023/01/04 09:16:36;;;;;;;;;;;11.20;99.90;;;;;;5019819;28;19984;-78
2023/01/04 09:19:01;;;;;;;;;;;11.20;99.90;;;;;;5016959;28;19968;-79
2023/01/04 09:21:27;;;;;;;;;;;11.20;99.90;;;;;;5012374;28;19930;-78
2023/01/04 09:23:53;;;;;;;;;;;11.20;99.90;;;;;;5015404;28;19988;-78
2023/01/04 09:26:22;;;;;;;;;;;11.20;99.90;;;;;;5020958;28;19932;-77
2023/01/04 09:28:48;;;;;;;;;;;11.20;99.90;;;;;;5036226;28;19939;-78
2023/01/04 09:31:15;;;;;;;;;;;11.20;99.90;;;;;;5019598;28;19940;-79
2023/01/04 09:33:42;;;;;;;;;;;11.20;99.90;;;;;;5019503;28;19926;-79
2023/01/04 09:36:08;;;;;;;;;;;11.20;99.90;;;;;;5017954;28;19925;-79
2023/01/04 09:38:34;;;;;;;;;;;11.20;99.90;;;;;;5018923;28;19936;-78
2023/01/04 09:41:12;;;;;;;;;;;11.20;99.90;;;;;;5019559;28;19930;-78
2023/01/04 09:43:57;;;;;;;;;;;11.30;99.90;;;;;;5020624;28;19932;-79
2023/01/04 09:46:42;;;;;;;;;;;11.30;99.90;;;;;;5019105;28;19933;-80
2023/01/04 09:49:16;;;;;;;;;;;11.20;99.90;;;;;;5019667;28;19961;-79
2023/01/04 09:51:47;;;;;;;;;;;11.30;99.90;;;;;;5018968;28;19934;-79
2023/01/04 09:54:16;;;;;;;;;;;11.30;99.90;;;;;;5018659;28;19972;-79
2023/01/04 09:56:47;;;;;;;;;;;11.30;99.90;;;;;;5018870;28;19926;-79
2023/01/04 09:59:15;;;;;;;;;;;11.30;99.90;;;;;;5032208;28;19977;-79
2023/01/04 10:01:47;;;;;;;;;;;11.30;99.90;;;;;;5016550;28;19926;-79
2023/01/04 10:04:28;;;;;;;;;;;11.30;99.90;;;;;;5018743;28;19947;-80
2023/01/04 10:06:53;;;;;;;;;;;11.30;99.90;;;;;;5032734;28;19936;-79
2023/01/04 10:09:19;;;;;;;;;;;11.30;99.90;;;;;;5016724;28;19929;-80
2023/01/04 10:11:51;;;;;;;;;;;11.30;99.90;;;;;;5017864;28;19936;-80
2023/01/04 10:14:16;;;;;;;;;;;11.30;99.90;;;;;;5033949;28;19968;-79
2023/01/04 10:16:42;;;;;;;;;;;11.30;99.90;;;;;;5019392;28;19930;-80
2023/01/04 10:19:26;;;;;;;;;;;11.30;99.90;;;;;;5033192;28;19956;-80
2023/01/04 10:22:18;;;;;;;;;;;11.30;99.90;;;;;;5017577;28;19983;-80
2023/01/04 10:25:02;;;;;;;;;;;11.20;99.90;;;;;;4987233;28;19932;-79
2023/01/04 10:27:31;;;;;;;;;;;11.30;99.90;;;;;;5034450;28;19925;-80
2023/01/04 10:30:02;;;;;;;;;;;11.30;99.90;;;;;;5022177;28;19956;-80
2023/01/04 10:32:37;;;;;;;;;;;11.30;99.90;;;;;;5017698;28;19929;-80
2023/01/04 10:35:15;;;;;;;;;;;11.30;99.90;;;;;;5018965;28;19945;-79
2023/01/04 10:37:40;;;;;;;;;;;11.40;99.90;;;;;;5016434;28;19926;-79
2023/01/04 10:40:11;;;;;;;;;;;11.40;99.90;;;;;;5017277;28;19925;-79
2023/01/04 10:42:39;;;;;;;;;;;11.40;99.90;;;;;;5008154;28;20537;-80
2023/01/04 10:45:10;;;;;;;;;;;11.40;99.90;;;;;;5001565;28;19953;-79
2023/01/04 10:47:56;;;;;;;;;;;11.40;99.90;;;;;;5001100;28;19926;-79
2023/01/04 10:50:42;;;;;;;;;;;11.40;99.90;;;;;;5013321;28;19932;-79
2023/01/04 10:53:15;;;;;;;;;;;11.50;99.90;;;;;;5007375;28;19977;-78
2023/01/04 10:55:43;;;;;;;;;;;11.50;99.90;;;;;;5015984;28;19941;-79
2023/01/04 10:58:16;;;;;;;;;;;11.50;99.90;;;;;;5011261;28;19929;-79
2023/01/04 11:00:44;;;;;;;;;;;11.50;99.90;;;;;;5011900;28;19925;-79
2023/01/04 11:03:14;;;;;;;;;;;11.60;99.90;;;;;;5010112;28;19937;-80
2023/01/04 11:05:44;;;;;;;;;;;11.60;99.90;;;;;;5011236;28;19971;-79
2023/01/04 11:08:41;;;;;;;;;;;11.70;99.90;;;;;;5013859;28;19959;-79
2023/01/04 11:11:17;;;;;;;;;;;11.70;99.90;;;;;;4969519;28;19940;-79
2023/01/04 11:13:42;;;;;;;;;;;11.70;99.90;;;;;;5016760;28;19952;-79
2023/01/04 11:16:08;;;;;;;;;;;11.80;99.90;;;;;;5017345;28;19929;-79
2023/01/04 11:18:36;;;;;;;;;;;11.80;99.90;;;;;;5017654;28;19925;-79
2023/01/04 11:21:07;;;;;;;;;;;11.90;99.90;;;;;;5011772;28;20007;-79
2023/01/04 11:23:33;;;;;;;;;;;11.90;99.90;;;;;;5015716;28;19949;-79
2023/01/04 11:26:03;;;;;;;;;;;11.90;99.90;;;;;;5011248;28;19926;-79
2023/01/04 11:28:37;;;;;;;;;;;12.00;99.90;;;;;;5025862;28;19935;-79
2023/01/04 11:31:06;;;;;;;;;;;12.00;99.90;;;;;;5004427;28;19929;-79
2023/01/04 11:33:49;;;;;;;;;;;12.00;99.90;;;;;;5031648;28;19975;-79
2023/01/04 11:36:31;;;;;;;;;;;12.00;99.90;;;;;;5011273;28;19930;-78
2023/01/04 11:38:57;;;;;;;;;;;12.10;99.90;;;;;;5011962;28;19929;-79
2023/01/04 11:41:22;;;;;;;;;;;12.10;99.90;;;;;;5010697;28;20407;-79
2023/01/04 11:43:58;;;;;;;;;;;12.10;99.90;;;;;;5009340;28;19990;-79
2023/01/04 11:46:25;;;;;;;;;;;12.20;99.90;;;;;;5000976;28;20008;-79
2023/01/04 11:48:51;;;;;;;;;;;12.20;99.90;;;;;;5011113;28;19926;-79
2023/01/04 11:51:24;;;;;;;;;;;12.20;99.90;;;;;;5015150;28;19935;-79
2023/01/04 11:53:56;;;;;;;;;;;12.20;99.90;;;;;;5033079;28;20326;-79
2023/01/04 11:56:22;;;;;;;;;;;12.20;99.90;;;;;;5009196;28;19926;-79
2023/01/04 11:59:11;;;;;;;;;;;12.20;99.90;;;;;;5017032;28;19925;-80
2023/01/04 12:01:38;;;;;;;;;;;12.20;99.90;;;;;;4996459;28;19926;-79
2023/01/04 12:04:30;;;;;;;;;;;12.20;99.90;;;;;;4985121;28;19972;-79
2023/01/04 12:06:56;;;;;;;;;;;12.30;99.90;;;;;;4993185;28;19989;-79
2023/01/04 12:09:22;;;;;;;;;;;12.30;99.90;;;;;;5012549;28;19925;-80
2023/01/04 12:11:49;;;;;;;;;;;12.30;99.90;;;;;;5001768;28;20397;-79
2023/01/04 12:14:23;;;;;;;;;;;12.30;99.90;;;;;;5000407;28;19926;-79
2023/01/04 12:17:08;;;;;;;;;;;12.30;99.90;;;;;;5002907;28;20045;-79
2023/01/04 12:19:34;;;;;;;;;;;12.30;99.90;;;;;;5000969;28;20377;-79
2023/01/04 12:22:01;;;;;;;;;;;12.30;99.90;;;;;;4982017;28;19993;-79
2023/01/04 12:24:30;;;;;;;;;;;12.30;99.90;;;;;;5002635;28;19984;-79
2023/01/04 12:26:56;;;;;;;;;;;12.20;99.90;;;;;;5000041;28;19972;-79
2023/01/04 12:29:22;;;;;;;;;;;12.20;99.90;;;;;;4991449;28;20424;-79
2023/01/04 12:31:51;;;;;;;;;;;12.20;99.90;;;;;;4999987;28;19941;-79
2023/01/04 12:34:20;;;;;;;;;;;12.20;99.90;;;;;;5004496;28;19926;-79
2023/01/04 12:36:49;;;;;;;;;;;12.20;99.90;;;;;;5020136;28;19932;-79
2023/01/04 12:39:14;;;;;;;;;;;12.20;99.90;;;;;;5008386;28;19925;-79
2023/01/04 12:41:40;;;;;;;;;;;12.20;99.90;;;;;;5014180;28;19935;-80
2023/01/04 12:44:24;;;;;;;;;;;12.20;99.90;;;;;;5017576;28;20009;-80
2023/01/04 12:49:38;;;;;;;;;;;12.20;99.90;;;;;;5019568;28;20012;-80
2023/01/04 12:52:06;;;;;;;;;;;12.20;99.90;;;;;;5019021;28;19930;-79
2023/01/04 12:54:49;;;;;;;;;;;12.20;99.90;;;;;;5032259;28;19930;-80
2023/01/04 12:57:15;;;;;;;;;;;12.20;99.90;;;;;;5018873;28;20001;-80
2023/01/04 12:59:59;;;;;;;;;;;12.10;99.90;;;;;;5029011;28;20058;-80
2023/01/04 13:02:24;;;;;;;;;;;12.20;99.90;;;;;;5026491;28;19925;-80
2023/01/04 13:04:52;;;;;;;;;;;12.20;99.90;;;;;;5018978;28;20012;-80
2023/01/04 13:07:19;;;;;;;;;;;12.20;99.90;;;;;;5019020;28;19925;-79
2023/01/04 13:09:50;;;;;;;;;;;12.20;99.90;;;;;;5001988;28;20443;-80
2023/01/04 13:12:33;;;;;;;;;;;12.20;99.90;;;;;;5019964;28;20017;-81
2023/01/04 13:15:10;;;;;;;;;;;12.30;99.90;;;;;;5034338;28;19988;-80
2023/01/04 13:17:38;;;;;;;;;;;12.30;99.90;;;;;;5001323;28;19933;-80
2023/01/04 13:20:18;;;;;;;;;;;12.30;99.90;;;;;;5018337;28;20263;-80
2023/01/04 13:22:53;;;;;;;;;;;12.30;99.90;;;;;;5019360;28;19972;-81
2023/01/04 13:25:20;;;;;;;;;;;12.30;99.90;;;;;;5018258;28;19926;-81
2023/01/04 13:27:55;;;;;;;;;;;12.30;99.90;;;;;;5032780;28;19926;-80
2023/01/04 13:30:35;;;;;;;;;;;12.30;99.90;;;;;;5017742;28;19925;-81
2023/01/04 13:33:09;;;;;;;;;;;12.30;99.90;;;;;;5019436;28;19948;-81
2023/01/04 13:35:34;;;;;;;;;;;12.30;99.90;;;;;;5019159;28;19951;-81
2023/01/04 13:38:00;;;;;;;;;;;12.40;99.90;;;;;;5019003;28;19985;-81
2023/01/04 13:40:33;;;;;;;;;;;12.40;99.90;;;;;;5033988;28;19939;-81
2023/01/04 13:43:14;;;;;;;;;;;12.40;99.90;;;;;;5020719;28;19992;-81
2023/01/04 13:45:58;;;;;;;;;;;12.40;99.90;;;;;;5018952;28;19987;-80
2023/01/04 13:48:25;;;;;;;;;;;12.40;99.90;;;;;;5005675;28;19929;-81
2023/01/04 13:50:58;;;;;;;;;;;12.40;99.90;;;;;;5033472;28;19929;-81
2023/01/04 13:53:25;;;;;;;;;;;12.40;99.90;;;;;;5018665;28;19932;-81
2023/01/04 13:55:55;;;;;;;;;;;12.40;99.90;;;;;;5033838;28;19988;-80
2023/01/04 13:58:22;;;;;;;;;;;12.40;99.90;;;;;;5018929;28;19926;-81
2023/01/04 14:00:54;;;;;;;;;;;12.30;99.90;;;;;;5017897;28;19925;-81
2023/01/04 14:03:30;;;;;;;;;;;12.30;99.90;;;;;;5018745;28;19952;-81
2023/01/04 14:06:08;;;;;;;;;;;12.30;99.90;;;;;;5007689;28;19929;-81
2023/01/04 14:08:46;;;;;;;;;;;12.40;99.90;;;;;;5018018;28;19993;-80
2023/01/04 14:11:57;;;;;;;;;;;12.40;99.90;;;;;;5002242;28;20130;-81
2023/01/04 14:14:12;;;;;;;;;;;12.40;99.90;;;;;;5027691;28;19973;-80
2023/01/04 14:16:37;;;;;;;;;;;12.30;99.90;;;;;;5002264;28;19929;-81
2023/01/04 14:19:26;;;;;;;;;;;12.30;99.90;;;;;;5000483;28;19972;-81
2023/01/04 14:21:51;;;;;;;;;;;12.30;99.90;;;;;;5017969;28;20315;-81
2023/01/04 14:24:32;;;;;;;;;;;12.30;99.90;;;;;;5001004;28;19996;-80
2023/01/04 14:26:58;;;;;;;;;;;12.30;99.90;;;;;;5018277;28;19937;-80
2023/01/04 14:29:30;;;;;;;;;;;12.30;99.90;;;;;;5000901;28;19925;-80
2023/01/04 14:31:56;;;;;;;;;;;12.30;99.90;;;;;;5032967;28;19949;-82
2023/01/04 14:34:22;;;;;;;;;;;12.30;99.90;;;;;;5005089;28;19979;-80
2023/01/04 14:36:47;;;;;;;;;;;12.30;99.90;;;;;;4998251;28;20377;-81
2023/01/04 14:39:18;;;;;;;;;;;12.30;99.90;;;;;;5016632;28;19929;-81
2023/01/04 14:41:50;;;;;;;;;;;12.30;99.90;;;;;;5018061;28;19929;-81
2023/01/04 14:44:24;;;;;;;;;;;12.30;99.90;;;;;;5033468;28;19926;-80
2023/01/04 14:46:51;;;;;;;;;;;12.30;99.90;;;;;;5018169;28;19992;-80
2023/01/04 14:49:18;;;;;;;;;;;12.30;99.90;;;;;;5018640;28;20020;-80
2023/01/04 14:51:51;;;;;;;;;;;12.30;99.90;;;;;;5013983;28;20545;-80
2023/01/04 14:54:18;;;;;;;;;;;12.30;99.90;;;;;;5016839;28;19964;-80
2023/01/04 14:56:43;;;;;;;;;;;12.30;99.90;;;;;;5018002;28;19951;-80
2023/01/04 14:59:09;;;;;;;;;;;12.30;99.90;;;;;;5017272;28;20418;-82
2023/01/04 15:01:35;;;;;;;;;;;12.30;99.90;;;;;;5017786;28;19969;-81
2023/01/04 15:04:01;;;;;;;;;;;12.30;99.90;;;;;;5034219;28;20001;-81
2023/01/04 15:06:27;;;;;;;;;;;12.30;99.90;;;;;;5000196;28;19932;-81
2023/01/04 15:08:53;;;;;;;;;;;12.30;99.90;;;;;;5020595;28;20024;-82
2023/01/04 15:11:18;;;;;;;;;;;12.30;99.90;;;;;;5001251;28;19975;-82
2023/01/04 15:13:44;;;;;;;;;;;12.30;99.90;;;;;;5001170;28;19936;-81